Time;durP1;ratioP1;P1;durP2;ratioP2;P2;SDS_P1;SDS_P2;PMS_P1;PMS_P2;Temp;Humidity;BMP_temperature;BMP_pressure;BME280_temperature;BME280_humidity;BME280_pressure;Samples;Min_cycle;Max_cycle;Signal;HPM_P1;HPM_P2
2023/10/16 00:01:09;;;;;;;1.17;1.08;;;5.50;99.90;;;;;;5050773;28;20563;-72
2023/10/16 00:03:41;;;;;;;1.20;1.10;;;5.50;99.90;;;;;;5050866;28;20206;-72
2023/10/16 00:06:11;;;;;;;1.35;0.95;;;5.50;99.90;;;;;;5050487;28;20198;-72
2023/10/16 00:08:47;;;;;;;1.60;1.02;;;5.50;99.90;;;;;;5042679;28;20598;-72
2023/10/16 00:11:16;;;;;;;2.88;0.95;;;5.50;99.90;;;;;;5050401;28;20205;-72
2023/10/16 00:13:47;;;;;;;2.45;1.10;;;5.40;99.90;;;;;;5050559;28;20288;-72
2023/10/16 00:16:16;;;;;;;2.65;0.90;;;5.40;99.90;;;;;;5050353;28;20579;-72
2023/10/16 00:18:45;;;;;;;0.90;0.90;;;5.40;99.90;;;;;;5050537;28;20218;-71
2023/10/16 00:21:14;;;;;;;1.15;0.70;;;5.30;99.90;;;;;;5052085;28;20198;-72
2023/10/16 00:23:42;;;;;;;1.70;0.77;;;5.30;99.90;;;;;;5054108;28;20667;-72
2023/10/16 00:26:12;;;;;;;2.90;1.23;;;5.30;99.90;;;;;;5054132;28;20208;-72
2023/10/16 00:28:44;;;;;;;2.97;1.10;;;5.30;99.90;;;;;;5054043;28;20226;-72
2023/10/16 00:31:20;;;;;;;1.25;0.90;;;5.20;99.90;;;;;;5054081;28;20202;-72
2023/10/16 00:33:50;;;;;;;2.38;1.33;;;5.20;99.90;;;;;;5053862;28;20221;-72
2023/10/16 00:36:18;;;;;;;1.90;1.27;;;5.20;99.90;;;;;;5054041;28;20226;-72
2023/10/16 00:38:51;;;;;;;3.05;1.30;;;5.20;99.90;;;;;;5054077;28;20237;-72
2023/10/16 00:41:23;;;;;;;1.58;1.15;;;5.20;99.90;;;;;;5053789;28;20229;-72
2023/10/16 00:43:52;;;;;;;2.05;1.20;;;5.20;99.90;;;;;;5053801;28;20245;-72
2023/10/16 00:46:29;;;;;;;1.52;1.20;;;5.20;99.90;;;;;;5053606;28;20213;-72
2023/10/16 00:48:58;;;;;;;1.55;1.33;;;5.10;99.90;;;;;;5053985;28;20255;-72
2023/10/16 00:51:26;;;;;;;5.10;1.40;;;5.10;99.90;;;;;;5053627;28;20587;-72
2023/10/16 00:54:15;;;;;;;2.63;1.13;;;5.10;99.90;;;;;;5053801;28;20420;-72
2023/10/16 00:56:44;;;;;;;4.22;1.30;;;5.10;99.90;;;;;;5053407;28;20221;-72
2023/10/16 00:59:15;;;;;;;2.97;1.35;;;5.10;99.90;;;;;;5053703;28;20295;-71
2023/10/16 01:01:45;;;;;;;3.80;1.25;;;5.10;99.90;;;;;;5053629;28;20202;-71
2023/10/16 01:04:13;;;;;;;3.88;1.88;;;5.00;99.90;;;;;;5053506;28;20288;-72
2023/10/16 01:06:44;;;;;;;3.85;1.42;;;5.00;99.90;;;;;;5053291;28;20202;-71
2023/10/16 01:09:22;;;;;;;1.88;1.33;;;5.00;99.90;;;;;;5053308;28;20233;-72
2023/10/16 01:11:50;;;;;;;1.55;1.20;;;5.00;99.90;;;;;;5053387;28;20209;-72
2023/10/16 01:14:18;;;;;;;1.45;1.35;;;5.00;99.90;;;;;;5051173;28;20256;-72
2023/10/16 01:16:47;;;;;;;1.17;1.17;;;5.00;99.90;;;;;;5052847;28;20276;-72
2023/10/16 01:19:19;;;;;;;2.63;1.30;;;5.00;99.90;;;;;;5053128;28;20284;-72
2023/10/16 01:21:48;;;;;;;1.88;1.40;;;4.90;99.90;;;;;;5045654;28;20672;-72
2023/10/16 01:24:19;;;;;;;1.63;1.20;;;4.90;99.90;;;;;;5053001;28;20663;-72
2023/10/16 01:26:48;;;;;;;1.70;1.05;;;4.90;99.90;;;;;;5052983;28;20834;-72
2023/10/16 01:29:16;;;;;;;3.65;1.35;;;4.80;99.90;;;;;;5052800;28;20279;-72
2023/10/16 01:31:47;;;;;;;1.35;1.13;;;4.90;99.90;;;;;;5053062;28;20687;-72
2023/10/16 01:34:15;;;;;;;2.78;1.35;;;4.90;99.90;;;;;;5053108;28;20233;-72
2023/10/16 01:36:45;;;;;;;4.68;1.27;;;4.80;99.90;;;;;;5044889;28;20268;-72
2023/10/16 01:39:47;;;;;;;1.10;1.10;;;4.80;99.90;;;;;;5052756;28;20253;-71
2023/10/16 01:42:11;;;;;;;1.50;1.20;;;4.80;99.90;;;;;;5052244;28;20206;-72
2023/10/16 01:44:40;;;;;;;1.45;1.13;;;4.80;99.90;;;;;;5052994;28;20622;-71
2023/10/16 01:47:15;;;;;;;1.13;1.13;;;4.70;99.90;;;;;;5052685;28;20292;-72
2023/10/16 01:49:43;;;;;;;1.13;1.13;;;4.70;99.90;;;;;;5052676;28;20201;-72
2023/10/16 01:52:13;;;;;;;1.27;1.15;;;4.50;99.90;;;;;;5052252;28;20292;-72
2023/10/16 01:54:42;;;;;;;2.55;1.08;;;4.50;99.90;;;;;;5052573;28;20659;-72
2023/10/16 01:57:12;;;;;;;3.00;1.45;;;4.50;99.90;;;;;;5052312;28;20233;-71
2023/10/16 01:59:42;;;;;;;1.00;1.00;;;4.40;99.90;;;;;;5052507;28;20614;-71
2023/10/16 02:02:11;;;;;;;4.68;1.17;;;4.40;99.90;;;;;;5052212;28;20213;-72
2023/10/16 02:04:39;;;;;;;3.47;1.10;;;4.40;99.90;;;;;;5052362;28;20241;-72
2023/10/16 02:07:08;;;;;;;1.85;1.20;;;4.40;99.90;;;;;;5052623;28;20293;-72
2023/10/16 02:09:38;;;;;;;2.55;1.52;;;4.40;99.90;;;;;;5052423;28;20304;-72
2023/10/16 02:12:10;;;;;;;1.13;0.98;;;4.40;99.90;;;;;;5052040;28;20198;-72
2023/10/16 02:14:40;;;;;;;1.20;1.05;;;4.40;99.90;;;;;;5052163;28;20754;-72
2023/10/16 02:17:14;;;;;;;1.20;0.93;;;4.30;99.90;;;;;;5051899;28;20228;-72
2023/10/16 02:19:44;;;;;;;2.75;1.08;;;4.30;99.90;;;;;;5052091;28;20288;-72
2023/10/16 02:22:12;;;;;;;1.10;1.05;;;4.30;99.90;;;;;;5051715;28;20275;-72
2023/10/16 02:24:40;;;;;;;1.10;0.93;;;4.30;99.90;;;;;;5052144;28;20317;-72
2023/10/16 02:27:12;;;;;;;1.10;1.00;;;4.30;99.90;;;;;;5051967;28;20210;-72
2023/10/16 02:29:45;;;;;;;2.15;1.10;;;4.30;99.90;;;;;;5051834;28;20675;-72
2023/10/16 02:32:15;;;;;;;1.52;1.15;;;4.30;99.90;;;;;;5051943;28;20296;-72
2023/10/16 02:34:43;;;;;;;1.10;0.80;;;4.30;99.90;;;;;;5051864;28;20218;-72
2023/10/16 02:37:14;;;;;;;2.80;0.98;;;4.30;99.90;;;;;;5051469;28;20218;-72
2023/10/16 02:39:50;;;;;;;2.28;1.15;;;4.20;99.90;;;;;;5051877;28;20293;-72
2023/10/16 02:42:19;;;;;;;1.92;1.30;;;4.20;99.90;;;;;;5051345;28;20209;-72
2023/10/16 02:44:49;;;;;;;5.40;1.52;;;4.10;99.90;;;;;;5043226;28;20679;-72
2023/10/16 02:47:25;;;;;;;4.28;1.00;;;4.10;99.90;;;;;;5051544;28;20256;-72
2023/10/16 02:49:54;;;;;;;3.15;1.30;;;4.10;99.90;;;;;;5051695;28;20202;-72
2023/10/16 02:52:22;;;;;;;2.03;1.38;;;4.00;99.90;;;;;;5051190;28;20613;-72
2023/10/16 02:54:50;;;;;;;2.38;0.85;;;4.00;99.90;;;;;;5051372;28;20241;-72
2023/10/16 02:57:19;;;;;;;1.15;1.13;;;4.00;99.90;;;;;;5051386;28;20269;-72
2023/10/16 02:59:49;;;;;;;1.15;1.13;;;4.00;99.90;;;;;;5051403;22;20234;-54
2023/10/16 03:02:22;;;;;;;3.55;0.90;;;4.00;99.90;;;;;;5031232;28;20260;-54
2023/10/16 03:04:51;;;;;;;2.10;1.25;;;4.00;99.90;;;;;;5031426;28;20222;-55
2023/10/16 03:07:21;;;;;;;3.85;1.00;;;3.90;99.90;;;;;;5030940;28;20260;-53
2023/10/16 03:09:51;;;;;;;1.73;1.05;;;3.90;99.90;;;;;;5031420;28;20763;-55
2023/10/16 03:12:21;;;;;;;1.08;1.00;;;3.90;99.90;;;;;;5031087;28;20206;-54
2023/10/16 03:14:56;;;;;;;1.55;1.05;;;3.90;99.90;;;;;;5031371;28;20225;-54
2023/10/16 03:17:34;;;;;;;0.98;0.98;;;3.90;99.90;;;;;;5031049;28;20237;-54
2023/10/16 03:20:09;;;;;;;0.98;0.98;;;3.90;99.90;;;;;;5031404;28;20202;-57
2023/10/16 03:22:36;;;;;;;2.47;0.90;;;3.90;99.90;;;;;;5031093;28;20211;-58
2023/10/16 03:25:24;;;;;;;2.70;1.52;;;3.90;99.90;;;;;;5031347;28;20226;-58
2023/10/16 03:27:53;;;;;;;1.00;1.00;;;3.90;99.90;;;;;;5031086;28;20224;-55
2023/10/16 03:30:27;;;;;;;1.00;1.00;;;3.90;99.90;;;;;;5031058;28;20213;-54
2023/10/16 03:32:55;;;;;;;3.20;1.00;;;3.90;99.90;;;;;;5031065;28;20207;-56
2023/10/16 03:35:26;;;;;;;1.10;0.90;;;3.80;99.90;;;;;;5031219;28;20230;-57
2023/10/16 03:37:54;;;;;;;1.60;1.10;;;3.80;99.90;;;;;;5030846;28;20327;-54
2023/10/16 03:40:24;;;;;;;3.45;1.20;;;3.80;99.90;;;;;;5031148;28;20202;-54
2023/10/16 03:42:53;;;;;;;1.13;1.08;;;3.80;99.90;;;;;;5030912;28;20202;-53
2023/10/16 03:45:23;;;;;;;2.35;1.20;;;3.70;99.90;;;;;;5030580;28;20258;-55
2023/10/16 03:47:52;;;;;;;1.83;1.08;;;3.70;99.90;;;;;;5030883;28;20195;-58
2023/10/16 03:50:24;;;;;;;1.83;1.23;;;3.60;99.90;;;;;;5031008;28;20210;-53
2023/10/16 03:52:54;;;;;;;1.40;1.00;;;3.50;99.90;;;;;;5030869;28;20293;-55
2023/10/16 03:55:22;;;;;;;0.98;0.98;;;3.50;99.90;;;;;;5031245;28;20258;-53
2023/10/16 03:57:51;;;;;;;1.10;1.00;;;3.50;99.90;;;;;;5026764;28;20273;-53
2023/10/16 04:00:25;;;;;;;0.98;0.95;;;3.60;99.90;;;;;;5034559;28;20279;-53
2023/10/16 04:02:59;;;;;;;0.95;0.95;;;3.60;99.90;;;;;;5034660;28;20199;-54
2023/10/16 04:05:45;;;;;;;2.70;1.10;;;3.60;99.90;;;;;;5034617;28;20268;-56
2023/10/16 04:08:14;;;;;;;3.97;1.20;;;3.60;99.90;;;;;;5034714;28;20298;-53
2023/10/16 04:10:46;;;;;;;3.65;1.40;;;3.60;99.90;;;;;;5034676;28;20211;-56
2023/10/16 04:13:14;;;;;;;1.63;1.20;;;3.60;99.90;;;;;;5034351;28;20202;-54
2023/10/16 04:16:09;;;;;;;1.17;1.08;;;3.60;99.90;;;;;;5034538;28;20249;-54
2023/10/16 04:18:39;;;;;;;1.17;1.17;;;3.60;99.90;;;;;;5034388;28;20237;-55
2023/10/16 04:21:37;;;;;;;1.40;1.27;;;3.60;99.90;;;;;;5034519;28;20211;-55
2023/10/16 04:24:19;;;;;;;1.00;1.00;;;3.50;99.90;;;;;;5033836;28;20217;-54
2023/10/16 04:26:56;;;;;;;2.78;0.98;;;3.40;99.90;;;;;;5034583;28;20214;-53
2023/10/16 04:29:28;;;;;;;1.92;1.05;;;3.40;99.90;;;;;;5032370;28;20202;-57
2023/10/16 04:31:55;;;;;;;1.75;1.27;;;3.40;99.90;;;;;;5033184;28;20210;-55
2023/10/16 04:34:31;;;;;;;1.55;1.13;;;3.40;99.90;;;;;;5032488;28;20222;-54
2023/10/16 04:43:07;;;;;;;5.43;1.02;;;3.40;99.90;;;;;;5033716;28;20298;-55
2023/10/16 04:45:59;;;;;;;1.27;1.10;;;3.40;99.90;;;;;;5034076;28;20253;-56
2023/10/16 04:48:49;;;;;;;1.25;1.10;;;3.40;99.90;;;;;;5033938;28;20210;-53
2023/10/16 04:51:17;;;;;;;1.30;1.02;;;3.40;99.90;;;;;;5033717;28;20242;-56
2023/10/16 04:54:13;;;;;;;3.17;1.60;;;3.30;99.90;;;;;;5033211;28;21028;-60
2023/10/16 04:57:37;;;;;;;3.42;1.50;;;3.30;99.90;;;;;;5033691;28;20297;-55
2023/10/16 04:59:59;;;;;;;3.63;1.33;;;3.30;99.90;;;;;;5033098;28;20230;-53
2023/10/16 05:02:33;;;;;;;3.72;2.08;;;3.30;99.90;;;;;;5031990;28;20218;-53
2023/10/16 05:08:06;;;;;;;2.13;1.58;;;3.20;99.90;;;;;;5031814;28;20269;-58
2023/10/16 05:13:39;;;;;;;1.83;1.73;;;3.20;99.90;;;;;;5017610;28;20297;-54
2023/10/16 05:19:01;;;;;;;1.30;1.20;;;3.10;99.90;;;;;;5031383;28;20230;-58
2023/10/16 06:14:14;;;;;;;9.55;4.88;;;3.30;99.90;;;;;;5031800;28;20231;-56
2023/10/16 06:16:42;;;;;;;7.55;5.70;;;3.40;99.90;;;;;;5030562;28;20295;-56
2023/10/16 06:19:15;;;;;;;9.75;5.50;;;3.40;99.90;;;;;;5026663;28;20207;-57
2023/10/16 06:21:47;;;;;;;8.57;3.90;;;3.40;99.90;;;;;;5029831;28;20289;-57
2023/10/16 06:24:28;;;;;;;5.38;3.58;;;3.40;99.90;;;;;;5026601;28;20219;-56
2023/10/16 06:26:56;;;;;;;6.25;3.65;;;3.40;99.90;;;;;;5031866;28;20216;-56
2023/10/16 06:29:35;;;;;;;5.22;3.05;;;3.50;99.90;;;;;;5031265;28;20222;-57
2023/10/16 06:32:07;;;;;;;3.58;2.70;;;3.50;99.90;;;;;;5030099;28;20230;-56
2023/10/16 06:34:36;;;;;;;4.50;2.85;;;3.50;99.90;;;;;;5031721;28;20672;-57
2023/10/16 06:37:06;;;;;;;4.40;2.50;;;3.60;99.90;;;;;;5026811;28;20206;-57
2023/10/16 06:39:36;;;;;;;2.65;2.25;;;3.60;99.90;;;;;;5030219;28;20708;-56
2023/10/16 06:42:04;;;;;;;6.00;3.00;;;3.60;99.90;;;;;;5031814;28;20214;-57
2023/10/16 06:44:34;;;;;;;6.43;3.00;;;3.70;99.90;;;;;;5030552;28;20314;-56
2023/10/16 06:47:02;;;;;;;2.90;2.22;;;3.70;99.90;;;;;;5031539;28;20561;-58
2023/10/16 06:49:35;;;;;;;5.47;3.03;;;3.70;99.90;;;;;;5031228;28;20230;-57
2023/10/16 06:52:04;;;;;;;5.65;2.80;;;3.80;99.90;;;;;;5031650;28;20202;-57
2023/10/16 06:54:37;;;;;;;3.00;2.70;;;3.80;99.90;;;;;;5031183;28;20374;-58
2023/10/16 06:57:10;;;;;;;3.38;3.00;;;3.90;99.90;;;;;;5031778;28;20211;-58
2023/10/16 06:59:40;;;;;;;4.25;2.95;;;3.90;99.90;;;;;;5031058;28;20305;-57
2023/10/16 07:02:15;;;;;;;6.95;3.30;;;4.00;99.90;;;;;;5031525;28;20260;-58
2023/10/16 07:04:44;;;;;;;3.80;2.45;;;4.10;99.90;;;;;;5031015;28;20230;-56
2023/10/16 07:07:15;;;;;;;3.58;2.63;;;4.20;99.90;;;;;;5031355;28;20649;-57
2023/10/16 07:09:48;;;;;;;3.50;3.10;;;4.30;99.90;;;;;;5031168;28;20874;-57
2023/10/16 07:12:17;;;;;;;3.13;2.83;;;4.40;99.90;;;;;;5031178;28;20203;-57
2023/10/16 07:14:55;;;;;;;5.63;3.58;;;4.50;99.90;;;;;;5030967;28;20222;-56
2023/10/16 07:17:24;;;;;;;4.63;3.85;;;4.60;99.90;;;;;;5031126;28;20202;-57
2023/10/16 07:19:58;;;;;;;6.68;3.85;;;4.60;99.90;;;;;;5031397;28;20218;-58
2023/10/16 07:22:31;;;;;;;8.73;4.93;;;4.80;99.90;;;;;;5030934;28;20294;-56
2023/10/16 07:25:08;;;;;;;4.40;3.92;;;4.90;99.90;;;;;;5031174;28;20218;-58
2023/10/16 07:27:37;;;;;;;8.88;5.22;;;5.00;99.90;;;;;;5030799;28;20672;-58
2023/10/16 07:30:21;;;;;;;6.43;4.45;;;5.10;99.90;;;;;;5034171;28;20254;-57
2023/10/16 07:32:49;;;;;;;11.13;6.00;;;5.20;99.90;;;;;;5037639;28;20224;-58
2023/10/16 07:35:18;;;;;;;11.77;6.63;;;5.30;99.90;;;;;;5037815;28;20704;-57
2023/10/16 07:37:48;;;;;;;8.38;6.15;;;5.50;99.90;;;;;;5037434;28;20210;-57
2023/10/16 07:40:19;;;;;;;10.18;6.65;;;5.60;99.90;;;;;;5037485;28;20205;-57
2023/10/16 07:42:47;;;;;;;16.38;7.72;;;5.70;99.90;;;;;;5037379;28;20210;-57
2023/10/16 07:45:17;;;;;;;15.43;7.65;;;5.80;99.90;;;;;;5037787;28;20228;-57
2023/10/16 07:47:48;;;;;;;11.95;8.50;;;5.90;99.90;;;;;;5037420;28;20233;-57
2023/10/16 07:50:16;;;;;;;15.00;8.05;;;6.00;99.90;;;;;;5037547;28;20214;-58
2023/10/16 07:52:44;;;;;;;17.70;8.10;;;6.10;99.90;;;;;;5037133;28;20230;-58
2023/10/16 07:55:18;;;;;;;13.23;8.60;;;6.20;99.90;;;;;;5037677;28;20284;-57
2023/10/16 07:57:47;;;;;;;12.50;8.25;;;6.30;99.90;;;;;;5037216;28;20580;-57
2023/10/16 08:00:25;;;;;;;20.15;8.57;;;6.40;99.90;;;;;;5037371;28;20206;-56
2023/10/16 08:03:04;;;;;;;13.23;7.75;;;6.50;99.90;;;;;;5036995;28;20206;-57
2023/10/16 08:05:33;;;;;;;15.27;8.10;;;6.60;99.90;;;;;;5037492;28;20230;-57
2023/10/16 08:08:11;;;;;;;18.80;7.60;;;6.70;99.90;;;;;;5037236;28;20214;-57
2023/10/16 08:10:42;;;;;;;15.25;8.40;;;6.70;99.90;;;;;;5037463;28;20226;-57
2023/10/16 08:13:13;;;;;;;11.73;8.30;;;6.80;99.90;;;;;;5037049;28;20612;-58
2023/10/16 08:15:47;;;;;;;11.13;8.75;;;6.90;99.90;;;;;;5037044;28;20778;-58
2023/10/16 08:18:18;;;;;;;16.38;9.00;;;7.00;99.90;;;;;;5037379;28;20617;-57
2023/10/16 08:23:38;;;;;;;14.90;8.80;;;7.10;99.90;;;;;;5021568;28;20214;-58
2023/10/16 08:26:14;;;;;;;14.60;9.55;;;7.20;99.90;;;;;;5037225;28;20198;-57
2023/10/16 08:28:45;;;;;;;13.07;9.40;;;7.20;99.90;;;;;;5037189;28;20210;-57
2023/10/16 08:31:26;;;;;;;10.43;8.63;;;7.20;99.90;;;;;;5037276;28;20229;-57
2023/10/16 08:33:55;;;;;;;11.25;8.75;;;7.30;99.90;;;;;;5036879;28;20230;-57
2023/10/16 08:36:23;;;;;;;12.95;8.32;;;7.40;99.90;;;;;;5037063;28;20660;-57
2023/10/16 08:38:54;;;;;;;15.85;8.85;;;7.40;99.90;;;;;;5036897;28;20261;-58
2023/10/16 08:41:42;;;;;;;14.52;10.02;;;7.50;99.90;;;;;;5035151;28;20286;-58
2023/10/16 08:44:14;;;;;;;13.48;8.73;;;7.70;99.90;;;;;;5033732;28;20274;-57
2023/10/16 08:46:53;;;;;;;16.35;9.18;;;7.80;99.90;;;;;;5033663;28;20587;-57
2023/10/16 08:49:23;;;;;;;11.77;9.52;;;8.00;99.90;;;;;;5033910;28;20198;-57
2023/10/16 08:51:52;;;;;;;14.15;9.07;;;8.10;99.90;;;;;;5033900;28;20215;-57
2023/10/16 08:57:03;;;;;;;14.30;9.63;;;8.40;99.90;;;;;;5020907;28;20228;-57
2023/10/16 08:59:32;;;;;;;12.00;9.07;;;8.50;99.90;;;;;;5033069;28;20702;-57
2023/10/16 09:02:02;;;;;;;12.93;9.90;;;8.50;99.90;;;;;;5033880;28;20248;-58
2023/10/16 09:04:29;;;;;;;16.65;10.18;;;8.70;99.90;;;;;;5033326;28;20229;-57
2023/10/16 09:06:57;;;;;;;16.75;10.30;;;8.80;99.90;;;;;;5033661;28;20206;-57
2023/10/16 09:09:26;;;;;;;13.48;9.95;;;8.90;99.90;;;;;;5033360;28;20203;-58
2023/10/16 09:12:01;;;;;;;12.93;9.85;;;9.10;99.90;;;;;;5033437;28;20360;-57
2023/10/16 09:14:29;;;;;;;18.00;10.55;;;9.30;99.90;;;;;;5033262;28;20226;-58
2023/10/16 09:17:00;;;;;;;14.85;9.82;;;9.40;99.90;;;;;;5033420;28;20206;-58
2023/10/16 09:19:33;;;;;;;17.35;9.52;;;9.60;99.90;;;;;;5033319;28;20207;-57
2023/10/16 09:22:04;;;;;;;12.60;9.38;;;9.80;99.90;;;;;;5033351;28;20211;-58
2023/10/16 09:24:33;;;;;;;17.05;8.63;;;9.90;99.90;;;;;;5033104;28;20237;-57
2023/10/16 09:27:10;;;;;;;14.90;9.00;;;10.10;99.90;;;;;;5033592;28;20218;-57
2023/10/16 09:29:38;;;;;;;13.60;8.82;;;10.20;99.90;;;;;;5032964;28;20288;-58
2023/10/16 09:32:07;;;;;;;16.90;9.45;;;10.50;99.90;;;;;;5033147;28;20290;-58
2023/10/16 09:34:35;;;;;;;10.32;8.40;;;10.80;99.90;;;;;;5032833;28;20649;-58
2023/10/16 09:37:20;;;;;;;13.85;8.43;;;11.00;99.90;;;;;;5032971;28;20218;-57
2023/10/16 09:39:49;;;;;;;14.35;8.23;;;11.20;99.90;;;;;;5032872;28;20744;-57
2023/10/16 09:42:24;;;;;;;11.73;9.10;;;11.40;99.90;;;;;;5032857;28;20298;-58
2023/10/16 09:44:59;;;;;;;11.55;8.85;;;11.40;99.90;;;;;;5032730;28;20253;-57
2023/10/16 09:47:30;;;;;;;9.60;7.93;;;11.60;99.90;;;;;;5032993;28;20302;-57
2023/10/16 09:49:59;;;;;;;16.42;8.57;;;12.00;99.90;;;;;;5032451;28;20207;-57
2023/10/16 09:52:30;;;;;;;14.65;8.65;;;12.30;99.90;;;;;;5032247;28;20221;-57
2023/10/16 09:54:59;;;;;;;14.60;9.27;;;12.40;99.90;;;;;;5031720;28;20607;-58
2023/10/16 09:57:30;;;;;;;12.70;7.72;;;12.60;99.90;;;;;;5032567;28;20214;-58
2023/10/16 10:00:23;;;;;;;12.93;8.18;;;12.80;99.90;;;;;;5032119;28;20218;-58
2023/10/16 10:02:52;;;;;;;14.35;8.82;;;13.10;99.90;;;;;;5032067;28;20218;-58
2023/10/16 10:05:22;;;;;;;10.85;7.53;;;13.10;99.90;;;;;;5032632;28;20234;-59
2023/10/16 10:07:50;;;;;;;14.93;8.18;;;13.30;99.90;;;;;;5032276;28;20302;-58
2023/10/16 10:13:08;;;;;;;10.13;7.65;;;13.80;99.90;;;;;;5032062;28;20213;-59
2023/10/16 10:15:39;;;;;;;8.70;7.60;;;13.90;99.90;;;;;;5032223;28;20242;-58
2023/10/16 10:20:58;;;;;;;9.70;7.28;;;14.00;99.90;;;;;;5031225;28;20214;-59
2023/10/16 10:23:26;;;;;;;12.85;8.05;;;14.40;99.90;;;;;;5031958;28;20199;-57
2023/10/16 10:25:54;;;;;;;11.48;7.72;;;14.80;99.90;;;;;;5032023;28;20707;-58
2023/10/16 10:28:25;;;;;;;14.18;9.00;;;14.90;99.90;;;;;;5031999;28;20309;-58
2023/10/16 10:30:55;;;;;;;14.13;8.50;;;15.10;99.90;;;;;;5031715;28;20226;-57
2023/10/16 10:33:51;;;;;;;13.05;8.13;;;15.30;99.90;;;;;;5031816;28;20206;-58
2023/10/16 10:36:34;;;;;;;11.27;6.38;;;15.50;99.90;;;;;;5031881;28;20206;-59
2023/10/16 10:39:39;;;;;;;9.23;5.90;;;15.70;99.90;;;;;;5031644;28;20684;-58
2023/10/16 10:42:10;;;;;;;9.52;6.40;;;16.00;99.90;;;;;;5030348;28;20218;-58
2023/10/16 10:44:44;;;;;;;10.73;6.63;;;16.10;99.90;;;;;;5028720;28;20226;-59
2023/10/16 10:47:20;;;;;;;8.10;5.32;;;16.30;99.90;;;;;;5031800;28;20238;-58
2023/10/16 10:49:50;;;;;;;7.88;4.90;;;16.50;99.90;;;;;;5031370;28;20304;-58
2023/10/16 10:52:19;;;;;;;9.05;5.45;;;16.20;99.90;;;;;;5031683;28;20676;-59
2023/10/16 10:54:49;;;;;;;8.07;4.10;;;15.60;99.90;;;;;;5031347;28;20257;-59
2023/10/16 10:57:18;;;;;;;8.82;5.10;;;15.70;99.90;;;;;;5031717;28;20214;-60
2023/10/16 10:59:47;;;;;;;11.13;5.75;;;17.00;99.90;;;;;;5031228;28;20269;-59
2023/10/16 11:02:35;;;;;;;7.63;3.70;;;18.10;99.90;;;;;;5031094;28;20220;-60
2023/10/16 11:05:09;;;;;;;6.20;2.92;;;18.80;99.90;;;;;;5030912;28;20300;-60
2023/10/16 11:07:45;;;;;;;5.93;2.70;;;19.40;99.90;;;;;;5031486;28;20901;-59
2023/10/16 11:10:13;;;;;;;4.32;2.50;;;20.00;99.90;;;;;;5031218;28;20206;-59
2023/10/16 11:12:44;;;;;;;4.03;2.85;;;19.80;99.90;;;;;;5031030;28;20229;-60
2023/10/16 11:15:12;;;;;;;5.22;2.38;;;19.60;99.90;;;;;;5031290;28;20233;-60
2023/10/16 11:17:40;;;;;;;5.10;2.70;;;20.00;99.90;;;;;;5031281;28;20206;-58
2023/10/16 11:20:27;;;;;;;8.68;3.05;;;20.30;99.90;;;;;;5030948;28;20596;-59
2023/10/16 11:22:56;;;;;;;5.78;2.60;;;20.10;99.90;;;;;;5030893;28;20222;-58
2023/10/16 11:25:28;;;;;;;11.10;3.15;;;19.80;99.90;;;;;;5031263;28;20291;-58
2023/10/16 11:27:57;;;;;;;5.22;2.65;;;19.80;99.90;;;;;;5029735;28;20237;-59
2023/10/16 11:30:27;;;;;;;4.10;2.67;;;19.50;99.90;;;;;;5031064;28;20338;-59
2023/10/16 11:32:55;;;;;;;4.65;2.70;;;18.90;99.90;;;;;;5030689;28;20257;-58
2023/10/16 11:35:26;;;;;;;4.00;2.42;;;18.60;99.90;;;;;;5031352;28;20275;-55
2023/10/16 11:37:59;;;;;;;3.38;2.30;;;18.30;99.90;;;;;;5029412;28;20202;-56
2023/10/16 11:40:39;;;;;;;5.35;2.25;;;18.20;99.90;;;;;;5029235;28;20717;-56
2023/10/16 11:43:11;;;;;;;4.93;2.35;;;18.20;99.90;;;;;;5029083;28;20292;-56
2023/10/16 11:45:39;;;;;;;5.57;2.40;;;18.20;99.90;;;;;;5030028;28;20226;-56
2023/10/16 11:48:21;;;;;;;4.97;2.67;;;18.60;99.90;;;;;;5030316;28;20226;-59
2023/10/16 11:50:51;;;;;;;3.97;1.75;;;18.20;99.90;;;;;;5030973;28;20248;-56
2023/10/16 11:53:23;;;;;;;6.75;2.00;;;17.40;99.90;;;;;;5030732;28;20214;-54
2023/10/16 11:55:51;;;;;;;3.38;2.53;;;17.40;99.90;;;;;;5028917;28;20268;-55
2023/10/16 11:58:19;;;;;;;4.70;2.38;;;17.60;99.90;;;;;;5028901;28;20253;-55
2023/10/16 12:00:53;;;;;;;4.40;2.30;;;17.50;99.90;;;;;;5029844;28;20214;-57
2023/10/16 12:03:23;;;;;;;3.35;2.10;;;17.60;99.90;;;;;;5027790;28;20206;-54
2023/10/16 12:05:55;;;;;;;2.15;1.48;;;17.60;99.90;;;;;;5030670;28;20207;-56
2023/10/16 12:08:23;;;;;;;5.20;2.10;;;17.60;99.90;;;;;;5022245;28;20687;-56
2023/10/16 12:10:50;;;;;;;3.15;1.48;;;17.60;99.90;;;;;;5027561;28;20203;-60
2023/10/16 12:13:18;;;;;;;4.53;1.58;;;17.50;99.90;;;;;;5023251;28;20277;-57
2023/10/16 12:15:46;;;;;;;2.50;1.33;;;17.20;99.90;;;;;;5030395;28;20206;-60
2023/10/16 12:18:15;;;;;;;4.03;2.33;;;17.00;99.90;;;;;;5033443;28;20206;-59
2023/10/16 12:20:43;;;;;;;10.68;1.92;;;17.20;99.90;;;;;;5034218;28;20672;-57
2023/10/16 12:23:12;;;;;;;5.05;1.90;;;17.40;99.90;;;;;;5033672;28;20577;-59
2023/10/16 12:25:41;;;;;;;3.80;1.40;;;17.40;99.90;;;;;;5033658;28;20261;-55
2023/10/16 12:28:09;;;;;;;3.60;1.25;;;17.20;99.90;;;;;;5033945;28;20557;-55
2023/10/16 12:30:37;;;;;;;3.10;1.00;;;17.20;99.90;;;;;;5034074;28;20252;-57
2023/10/16 12:33:06;;;;;;;2.13;1.20;;;17.10;99.90;;;;;;5033742;28;20241;-56
2023/10/16 12:35:35;;;;;;;4.43;1.13;;;16.70;99.90;;;;;;5033973;28;20604;-57
2023/10/16 12:38:04;;;;;;;3.55;1.23;;;16.80;99.90;;;;;;5033898;28;20416;-59
2023/10/16 12:40:38;;;;;;;3.90;1.10;;;17.00;99.90;;;;;;5034401;28;20268;-55
2023/10/16 12:43:06;;;;;;;2.22;1.33;;;17.20;99.90;;;;;;5033794;28;20636;-58
2023/10/16 12:45:34;;;;;;;2.38;1.08;;;17.00;99.90;;;;;;5034070;28;20720;-56
2023/10/16 12:48:03;;;;;;;1.75;1.00;;;17.00;99.90;;;;;;5033766;28;20676;-56
2023/10/16 12:50:32;;;;;;;1.67;1.10;;;16.90;99.90;;;;;;5033880;28;20221;-59
2023/10/16 12:53:00;;;;;;;4.30;1.23;;;16.80;99.90;;;;;;5033315;28;20688;-58
2023/10/16 12:55:28;;;;;;;3.05;1.05;;;16.90;99.90;;;;;;5033925;28;20238;-57
2023/10/16 12:57:57;;;;;;;1.75;1.15;;;17.10;99.90;;;;;;5033757;28;20621;-58
2023/10/16 13:00:26;;;;;;;3.03;1.02;;;17.20;99.90;;;;;;5033659;28;20664;-59
2023/10/16 13:02:55;;;;;;;1.80;0.70;;;17.40;99.90;;;;;;5033597;28;20214;-57
2023/10/16 13:05:24;;;;;;;2.78;1.20;;;17.70;99.90;;;;;;5033600;28;20306;-55
2023/10/16 13:07:52;;;;;;;5.95;1.25;;;17.90;99.90;;;;;;5033869;28;20237;-57
2023/10/16 13:10:26;;;;;;;4.18;1.42;;;17.80;99.90;;;;;;5033539;28;20203;-57
2023/10/16 13:12:55;;;;;;;7.90;1.42;;;18.00;99.90;;;;;;5033708;28;20237;-55
2023/10/16 13:15:25;;;;;;;3.45;1.30;;;18.20;99.90;;;;;;5033327;28;20276;-56
2023/10/16 13:17:53;;;;;;;1.50;1.20;;;18.40;99.90;;;;;;5033514;28;20317;-56
2023/10/16 13:20:26;;;;;;;2.17;1.30;;;18.70;99.20;;;;;;5033051;28;20202;-58
2023/10/16 13:22:54;;;;;;;4.28;1.17;;;18.60;98.90;;;;;;5033364;28;20210;-55
2023/10/16 13:25:23;;;;;;;3.25;1.20;;;18.20;98.80;;;;;;5032947;28;20250;-55
2023/10/16 13:27:52;;;;;;;4.95;1.27;;;18.00;99.70;;;;;;5032993;28;20214;-56
2023/10/16 13:30:22;;;;;;;2.85;1.20;;;18.00;99.90;;;;;;5033044;28;20285;-56
2023/10/16 13:32:52;;;;;;;3.38;1.10;;;17.90;99.50;;;;;;5033365;28;20265;-58
2023/10/16 13:35:20;;;;;;;4.15;1.02;;;17.20;99.50;;;;;;5032923;28;20226;-55
2023/10/16 13:37:49;;;;;;;4.35;1.20;;;16.90;99.90;;;;;;5033275;28;20221;-58
2023/10/16 13:40:21;;;;;;;1.58;0.73;;;16.60;99.90;;;;;;5032773;28;20210;-55
2023/10/16 13:42:49;;;;;;;1.00;0.90;;;16.30;99.90;;;;;;5032894;28;20209;-57
2023/10/16 13:45:18;;;;;;;3.42;1.10;;;16.10;99.90;;;;;;5032842;28;20680;-55
2023/10/16 13:47:46;;;;;;;2.03;1.13;;;16.40;99.90;;;;;;5033092;28;20207;-59
2023/10/16 13:50:16;;;;;;;4.05;2.03;;;16.40;99.90;;;;;;5032614;28;20218;-59
2023/10/16 13:52:45;;;;;;;2.38;1.35;;;16.40;99.90;;;;;;5032660;28;20227;-56
2023/10/16 13:55:13;;;;;;;7.20;1.17;;;16.50;99.90;;;;;;5032206;28;20299;-60
2023/10/16 13:57:42;;;;;;;3.08;1.15;;;16.80;99.90;;;;;;5032843;28;20215;-57
2023/10/16 14:00:28;;;;;;;2.28;0.93;;;17.10;99.90;;;;;;5032283;28;20301;-56
2023/10/16 14:02:57;;;;;;;6.93;1.40;;;17.20;99.90;;;;;;5032616;28;20206;-56
2023/10/16 14:05:28;;;;;;;3.67;1.00;;;17.20;99.90;;;;;;5032335;28;20374;-57
2023/10/16 14:07:57;;;;;;;2.63;1.10;;;17.20;99.90;;;;;;5031697;28;20210;-56
2023/10/16 14:10:25;;;;;;;2.63;1.23;;;17.10;99.90;;;;;;5030992;28;20895;-58
2023/10/16 14:12:58;;;;;;;1.95;0.85;;;17.00;99.90;;;;;;5031076;28;20284;-57
2023/10/16 14:15:32;;;;;;;7.43;1.00;;;16.70;99.90;;;;;;5032119;28;20290;-56
2023/10/16 14:18:01;;;;;;;1.52;0.70;;;16.50;99.90;;;;;;5031970;28;20269;-55
2023/10/16 14:20:39;;;;;;;1.48;0.63;;;16.40;99.90;;;;;;5032120;28;20237;-56
2023/10/16 14:23:11;;;;;;;3.90;1.25;;;16.30;99.90;;;;;;5031733;28;20242;-58
2023/10/16 14:25:45;;;;;;;3.13;0.73;;;16.20;99.90;;;;;;5032147;28;20230;-56
2023/10/16 14:28:25;;;;;;;2.17;0.63;;;16.10;99.90;;;;;;5031907;28;20210;-59
2023/10/16 14:30:55;;;;;;;0.68;0.60;;;15.90;99.90;;;;;;5031918;28;20684;-55
2023/10/16 14:33:25;;;;;;;3.38;0.80;;;15.70;99.90;;;;;;5031658;28;20281;-61